sensor_id;sensor_type;location;lat;lon;timestamp;pressure;altitude;pressure_sealevel;temperature;humidity
76609;BME280;65928;53.936;27.540;2023-02-02T00:00:52;97188.06;;;0.51;79.59
76609;BME280;65928;53.936;27.540;2023-02-02T00:03:18;97417.75;;;1.97;79.28
76609;BME280;65928;53.936;27.540;2023-02-02T00:05:47;97483.78;;;1.96;80.19
76609;BME280;65928;53.936;27.540;2023-02-02T00:08:14;97425.13;;;2.07;80.10
76609;BME280;65928;53.936;27.540;2023-02-02T00:10:40;97422.56;;;1.86;79.76
76609;BME280;65928;53.936;27.540;2023-02-02T00:13:05;96939.47;;;-1.13;79.02
76609;BME280;65928;53.936;27.540;2023-02-02T00:15:31;97003.19;;;-0.62;79.21
76609;BME280;65928;53.936;27.540;2023-02-02T00:17:56;97336.75;;;1.42;78.17
76609;BME280;65928;53.936;27.540;2023-02-02T00:20:22;97380.72;;;1.70;78.18
76609;BME280;65928;53.936;27.540;2023-02-02T00:22:48;97003.28;;;-0.65;77.23
76609;BME280;65928;53.936;27.540;2023-02-02T00:25:14;97432.41;;;1.99;77.34
76609;BME280;65928;53.936;27.540;2023-02-02T00:27:39;97430.06;;;1.93;77.64
76609;BME280;65928;53.936;27.540;2023-02-02T00:30:06;96923.16;;;-0.93;76.69
76609;BME280;65928;53.936;27.540;2023-02-02T00:32:32;97411.38;;;1.83;77.63
76609;BME280;65928;53.936;27.540;2023-02-02T00:34:57;97397.53;;;1.61;76.71
76609;BME280;65928;53.936;27.540;2023-02-02T00:37:23;97425.56;;;2.17;76.29
76609;BME280;65928;53.936;27.540;2023-02-02T00:39:48;96937.88;;;-0.72;76.04
76609;BME280;65928;53.936;27.540;2023-02-02T00:42:14;97433.44;;;2.15;76.88
76609;BME280;65928;53.936;27.540;2023-02-02T00:44:39;96942.06;;;-0.48;76.17
76609;BME280;65928;53.936;27.540;2023-02-02T00:47:23;97341.31;;;1.77;76.15
76609;BME280;65928;53.936;27.540;2023-02-02T00:49:49;97036.75;;;-0.16;75.72
76609;BME280;65928;53.936;27.540;2023-02-02T00:52:14;97211.97;;;1.01;75.63
76609;BME280;65928;53.936;27.540;2023-02-02T00:54:40;97426.00;;;2.06;76.21
76609;BME280;65928;53.936;27.540;2023-02-02T00:57:05;97161.81;;;0.57;76.14
76609;BME280;65928;53.936;27.540;2023-02-02T00:59:31;97216.53;;;0.74;76.60
76609;BME280;65928;53.936;27.540;2023-02-02T01:01:57;97424.72;;;1.96;76.95
76609;BME280;65928;53.936;27.540;2023-02-02T01:04:24;97448.03;;;1.99;76.76
76609;BME280;65928;53.936;27.540;2023-02-02T01:06:49;97433.59;;;1.92;77.74
76609;BME280;65928;53.936;27.540;2023-02-02T01:09:15;96938.03;;;-0.98;77.34
76609;BME280;65928;53.936;27.540;2023-02-02T01:11:40;97425.66;;;2.34;77.12
76609;BME280;65928;53.936;27.540;2023-02-02T01:14:06;96948.81;;;-0.65;77.25
76609;BME280;65928;53.936;27.540;2023-02-02T01:16:31;97435.84;;;2.20;77.52
76609;BME280;65928;53.936;27.540;2023-02-02T01:18:57;96948.28;;;-0.73;76.62
76609;BME280;65928;53.936;27.540;2023-02-02T01:21:22;97397.34;;;2.06;76.86
76609;BME280;65928;53.936;27.540;2023-02-02T01:23:48;97402.91;;;1.99;77.02
76609;BME280;65928;53.936;27.540;2023-02-02T01:26:14;97288.38;;;1.38;76.31
76609;BME280;65928;53.936;27.540;2023-02-02T01:28:40;96947.09;;;-0.86;76.36
76609;BME280;65928;53.936;27.540;2023-02-02T01:31:17;97297.38;;;1.51;76.44
76609;BME280;65928;53.936;27.540;2023-02-02T01:33:45;96941.28;;;-0.71;76.13
76609;BME280;65928;53.936;27.540;2023-02-02T01:36:13;96899.09;;;-0.97;75.96
76609;BME280;65928;53.936;27.540;2023-02-02T01:38:40;97419.13;;;2.25;75.84
76609;BME280;65928;53.936;27.540;2023-02-02T01:41:07;96962.56;;;-0.63;76.42
76609;BME280;65928;53.936;27.540;2023-02-02T01:46:33;97435.72;;;2.23;75.77
76609;BME280;65928;53.936;27.540;2023-02-02T01:49:10;97421.56;;;2.28;75.98
76609;BME280;65928;53.936;27.540;2023-02-02T01:51:52;97488.56;;;2.65;75.45
76609;BME280;65928;53.936;27.540;2023-02-02T01:54:34;97431.66;;;2.36;76.24
76609;BME280;65928;53.936;27.540;2023-02-02T01:57:07;97025.03;;;-0.05;76.19
76609;BME280;65928;53.936;27.540;2023-02-02T01:59:34;97430.59;;;2.21;77.15
76609;BME280;65928;53.936;27.540;2023-02-02T02:02:01;97416.09;;;2.14;76.84
76609;BME280;65928;53.936;27.540;2023-02-02T02:04:28;97123.19;;;0.69;75.84
76609;BME280;65928;53.936;27.540;2023-02-02T02:06:54;97418.94;;;2.10;77.09
76609;BME280;65928;53.936;27.540;2023-02-02T02:09:20;97513.69;;;2.67;76.03
76609;BME280;65928;53.936;27.540;2023-02-02T02:11:47;97434.19;;;2.37;76.17
76609;BME280;65928;53.936;27.540;2023-02-02T02:14:13;97238.69;;;1.24;75.60
76609;BME280;65928;53.936;27.540;2023-02-02T02:36:57;97467.44;;;2.71;75.14
76609;BME280;65928;53.936;27.540;2023-02-02T02:39:33;97512.81;;;2.47;76.99
76609;BME280;65928;53.936;27.540;2023-02-02T02:42:10;97089.69;;;0.22;76.72
76609;BME280;65928;53.936;27.540;2023-02-02T02:44:37;97003.59;;;-0.30;76.10
76609;BME280;65928;53.936;27.540;2023-02-02T02:47:03;97119.75;;;0.69;75.46
76609;BME280;65928;53.936;27.540;2023-02-02T02:49:28;97077.16;;;0.31;76.41
76609;BME280;65928;53.936;27.540;2023-02-02T02:51:55;97444.28;;;2.45;75.72
76609;BME280;65928;53.936;27.540;2023-02-02T02:59:39;97088.03;;;-0.23;78.05
76609;BME280;65928;53.936;27.540;2023-02-02T03:02:34;97483.19;;;2.09;79.68
76609;BME280;65928;53.936;27.540;2023-02-02T03:07:43;97524.84;;;2.31;78.75
76609;BME280;65928;53.936;27.540;2023-02-02T03:10:14;97004.13;;;-0.43;77.97
76609;BME280;65928;53.936;27.540;2023-02-02T03:12:49;97496.56;;;2.02;78.89
76609;BME280;65928;53.936;27.540;2023-02-02T03:15:15;97033.22;;;-0.35;77.54
76609;BME280;65928;53.936;27.540;2023-02-02T03:17:43;97024.38;;;-0.74;78.11
76609;BME280;65928;53.936;27.540;2023-02-02T03:20:10;97113.09;;;-0.22;78.25
76609;BME280;65928;53.936;27.540;2023-02-02T03:22:35;97509.38;;;2.26;77.79
76609;BME280;65928;53.936;27.540;2023-02-02T03:25:01;97395.50;;;1.48;77.38
76609;BME280;65928;53.936;27.540;2023-02-02T03:27:27;97012.34;;;-0.99;78.20
76609;BME280;65928;53.936;27.540;2023-02-02T03:29:53;97010.53;;;-0.97;78.52
76609;BME280;65928;53.936;27.540;2023-02-02T03:32:19;96983.81;;;-1.20;79.45
76609;BME280;65928;53.936;27.540;2023-02-02T03:34:45;97444.00;;;1.50;79.88
76609;BME280;65928;53.936;27.540;2023-02-02T03:37:10;97013.16;;;-1.20;80.08
76609;BME280;65928;53.936;27.540;2023-02-02T03:39:36;97008.09;;;-1.00;79.55
76609;BME280;65928;53.936;27.540;2023-02-02T03:42:01;97108.66;;;-0.63;80.06
76609;BME280;65928;53.936;27.540;2023-02-02T03:44:27;97552.03;;;2.04;79.65
76609;BME280;65928;53.936;27.540;2023-02-02T03:46:53;97406.38;;;1.37;79.78
76609;BME280;65928;53.936;27.540;2023-02-02T03:49:19;97016.09;;;-1.06;80.18
76609;BME280;65928;53.936;27.540;2023-02-02T03:51:45;97106.34;;;-0.26;78.60
76609;BME280;65928;53.936;27.540;2023-02-02T03:54:11;97471.72;;;1.93;79.04
76609;BME280;65928;53.936;27.540;2023-02-02T03:56:36;97221.34;;;0.20;79.46
76609;BME280;65928;53.936;27.540;2023-02-02T03:59:02;97399.53;;;1.35;79.84
76609;BME280;65928;53.936;27.540;2023-02-02T04:01:28;97420.16;;;1.61;79.52
76609;BME280;65928;53.936;27.540;2023-02-02T04:03:55;97026.13;;;-0.75;79.00
76609;BME280;65928;53.936;27.540;2023-02-02T04:06:21;97473.53;;;1.91;79.49
76609;BME280;65928;53.936;27.540;2023-02-02T04:08:46;97491.78;;;1.91;78.77
76609;BME280;65928;53.936;27.540;2023-02-02T04:11:12;97514.66;;;2.05;79.13
76609;BME280;65928;53.936;27.540;2023-02-02T04:13:37;97110.91;;;-0.32;78.38
76609;BME280;65928;53.936;27.540;2023-02-02T04:16:04;97543.97;;;2.30;77.08
76609;BME280;65928;53.936;27.540;2023-02-02T04:18:30;97030.16;;;-0.25;76.59
76609;BME280;65928;53.936;27.540;2023-02-02T04:20:59;97418.31;;;1.83;76.90
76609;BME280;65928;53.936;27.540;2023-02-02T04:23:26;97435.34;;;1.50;78.30
76609;BME280;65928;53.936;27.540;2023-02-02T04:25:51;97391.09;;;1.50;78.09
76609;BME280;65928;53.936;27.540;2023-02-02T04:28:17;97506.16;;;2.21;77.27
76609;BME280;65928;53.936;27.540;2023-02-02T04:30:43;97094.00;;;-0.42;77.29
76609;BME280;65928;53.936;27.540;2023-02-02T04:33:08;97030.47;;;-0.75;77.04
76609;BME280;65928;53.936;27.540;2023-02-02T04:35:34;97129.38;;;-0.40;77.57
76609;BME280;65928;53.936;27.540;2023-02-02T04:37:59;97519.13;;;2.01;78.17
76609;BME280;65928;53.936;27.540;2023-02-02T04:40:25;97526.66;;;1.65;77.42
76609;BME280;65928;53.936;27.540;2023-02-02T04:42:50;97572.31;;;2.17;77.28
76609;BME280;65928;53.936;27.540;2023-02-02T04:45:16;97523.00;;;2.13;77.37
76609;BME280;65928;53.936;27.540;2023-02-02T04:47:42;97104.63;;;-0.48;78.11
76609;BME280;65928;53.936;27.540;2023-02-02T04:50:08;97053.94;;;-0.78;78.12
76609;BME280;65928;53.936;27.540;2023-02-02T04:52:33;97219.47;;;0.02;78.56
76609;BME280;65928;53.936;27.540;2023-02-02T04:54:59;97426.81;;;1.46;77.44
76609;BME280;65928;53.936;27.540;2023-02-02T04:57:25;97371.59;;;1.18;76.98
76609;BME280;65928;53.936;27.540;2023-02-02T04:59:51;97353.66;;;1.12;76.52
76609;BME280;65928;53.936;27.540;2023-02-02T05:02:16;97551.88;;;2.28;76.96
76609;BME280;65928;53.936;27.540;2023-02-02T05:04:43;97545.94;;;2.25;76.74
76609;BME280;65928;53.936;27.540;2023-02-02T05:07:09;97548.91;;;2.16;76.84
76609;BME280;65928;53.936;27.540;2023-02-02T05:09:34;97566.34;;;1.94;77.31
76609;BME280;65928;53.936;27.540;2023-02-02T05:12:00;97628.66;;;2.20;76.95
76609;BME280;65928;53.936;27.540;2023-02-02T05:14:25;97560.34;;;2.53;75.94
76609;BME280;65928;53.936;27.540;2023-02-02T05:16:50;97562.44;;;2.25;76.15
76609;BME280;65928;53.936;27.540;2023-02-02T05:19:17;97461.03;;;1.79;76.13
76609;BME280;65928;53.936;27.540;2023-02-02T05:21:43;97061.19;;;-0.65;76.15
76609;BME280;65928;53.936;27.540;2023-02-02T05:24:10;97552.41;;;2.36;75.77
76609;BME280;65928;53.936;27.540;2023-02-02T05:26:36;97290.47;;;0.45;76.39
76609;BME280;65928;53.936;27.540;2023-02-02T05:29:02;97579.13;;;2.20;76.89
76609;BME280;65928;53.936;27.540;2023-02-02T05:31:28;97608.69;;;2.40;76.19
76609;BME280;65928;53.936;27.540;2023-02-02T05:33:55;97194.69;;;-0.07;76.27
76609;BME280;65928;53.936;27.540;2023-02-02T05:36:20;97076.50;;;-0.59;75.80
76609;BME280;65928;53.936;27.540;2023-02-02T05:38:46;97170.25;;;-0.02;75.46
76609;BME280;65928;53.936;27.540;2023-02-02T05:41:11;97160.34;;;-0.14;75.62
76609;BME280;65928;53.936;27.540;2023-02-02T05:43:37;97544.22;;;2.24;75.37
76609;BME280;65928;53.936;27.540;2023-02-02T05:46:02;97460.22;;;1.57;76.10
76609;BME280;65928;53.936;27.540;2023-02-02T05:48:28;97617.88;;;2.29;76.71
76609;BME280;65928;53.936;27.540;2023-02-02T05:51:06;97280.19;;;0.21;76.90
76609;BME280;65928;53.936;27.540;2023-02-02T05:53:34;97126.88;;;-0.43;77.18
76609;BME280;65928;53.936;27.540;2023-02-02T05:56:00;97653.63;;;2.67;76.62
76609;BME280;65928;53.936;27.540;2023-02-02T05:58:26;97264.41;;;0.47;76.37
76609;BME280;65928;53.936;27.540;2023-02-02T06:00:52;97175.38;;;-0.22;76.37
76609;BME280;65928;53.936;27.540;2023-02-02T06:03:18;97322.53;;;0.89;75.73
76609;BME280;65928;53.936;27.540;2023-02-02T06:05:43;97674.88;;;2.78;75.07
76609;BME280;65928;53.936;27.540;2023-02-02T06:08:09;97621.97;;;2.34;76.54
76609;BME280;65928;53.936;27.540;2023-02-02T06:10:38;97630.47;;;2.59;75.89
76609;BME280;65928;53.936;27.540;2023-02-02T06:13:03;97623.41;;;2.41;76.64
76609;BME280;65928;53.936;27.540;2023-02-02T06:15:29;97606.84;;;2.22;76.72
76609;BME280;65928;53.936;27.540;2023-02-02T06:17:55;97147.97;;;-0.52;76.89
76609;BME280;65928;53.936;27.540;2023-02-02T06:20:22;97145.53;;;-0.55;76.10
76609;BME280;65928;53.936;27.540;2023-02-02T06:22:47;97622.06;;;2.53;76.29
76609;BME280;65928;53.936;27.540;2023-02-02T06:25:13;97640.28;;;2.33;76.46
76609;BME280;65928;53.936;27.540;2023-02-02T06:27:38;97248.19;;;-0.03;76.48
76609;BME280;65928;53.936;27.540;2023-02-02T06:30:04;97330.69;;;0.35;76.18
76609;BME280;65928;53.936;27.540;2023-02-02T06:32:30;97626.16;;;2.38;76.43
76609;BME280;65928;53.936;27.540;2023-02-02T06:34:55;97241.47;;;0.15;75.33
76609;BME280;65928;53.936;27.540;2023-02-02T06:37:21;97251.25;;;0.30;75.61
76609;BME280;65928;53.936;27.540;2023-02-02T06:39:46;97177.75;;;0.06;74.26
76609;BME280;65928;53.936;27.540;2023-02-02T06:42:12;97658.63;;;2.51;75.54
76609;BME280;65928;53.936;27.540;2023-02-02T06:44:37;97544.56;;;1.74;75.66
76609;BME280;65928;53.936;27.540;2023-02-02T06:47:03;97659.66;;;2.47;76.50
76609;BME280;65928;53.936;27.540;2023-02-02T06:49:28;97181.88;;;0.12;74.28
76609;BME280;65928;53.936;27.540;2023-02-02T06:51:53;97187.59;;;-0.02;74.90
76609;BME280;65928;53.936;27.540;2023-02-02T06:54:19;97658.19;;;2.82;74.98
76609;BME280;65928;53.936;27.540;2023-02-02T06:56:44;97179.66;;;-0.21;74.88
76609;BME280;65928;53.936;27.540;2023-02-02T06:59:10;97166.25;;;-0.32;74.76
76609;BME280;65928;53.936;27.540;2023-02-02T07:01:35;97669.69;;;2.15;76.06
76609;BME280;65928;53.936;27.540;2023-02-02T07:04:01;97621.88;;;2.57;74.96
76609;BME280;65928;53.936;27.540;2023-02-02T07:06:28;97197.84;;;0.01;74.56
76609;BME280;65928;53.936;27.540;2023-02-02T07:08:54;97195.00;;;-0.15;74.66
76609;BME280;65928;53.936;27.540;2023-02-02T07:11:20;97209.44;;;0.14;74.21
76609;BME280;65928;53.936;27.540;2023-02-02T07:13:48;97288.00;;;0.64;74.43
76609;BME280;65928;53.936;27.540;2023-02-02T07:16:15;97196.78;;;0.07;74.09
76609;BME280;65928;53.936;27.540;2023-02-02T07:18:40;97284.31;;;0.48;74.75
76609;BME280;65928;53.936;27.540;2023-02-02T07:21:08;97671.69;;;2.71;74.70
76609;BME280;65928;53.936;27.540;2023-02-02T07:23:34;97660.63;;;2.45;75.10
76609;BME280;65928;53.936;27.540;2023-02-02T07:26:05;97660.59;;;2.46;75.13
76609;BME280;65928;53.936;27.540;2023-02-02T07:28:31;97669.69;;;2.36;74.92
76609;BME280;65928;53.936;27.540;2023-02-02T07:30:57;97285.72;;;0.35;74.29
76609;BME280;65928;53.936;27.540;2023-02-02T07:33:22;97205.38;;;-0.15;73.97
76609;BME280;65928;53.936;27.540;2023-02-02T07:35:47;97681.00;;;2.57;74.83
76609;BME280;65928;53.936;27.540;2023-02-02T07:38:13;97686.25;;;2.77;74.10
76609;BME280;65928;53.936;27.540;2023-02-02T07:40:38;97204.22;;;-0.08;74.08
76609;BME280;65928;53.936;27.540;2023-02-02T07:43:04;97692.25;;;2.79;74.51
76609;BME280;65928;53.936;27.540;2023-02-02T07:45:29;97715.66;;;2.81;73.91
76609;BME280;65928;53.936;27.540;2023-02-02T07:47:56;97678.38;;;2.57;74.64
76609;BME280;65928;53.936;27.540;2023-02-02T07:50:22;97219.16;;;-0.36;74.70
76609;BME280;65928;53.936;27.540;2023-02-02T07:52:47;97294.31;;;0.14;74.36
76609;BME280;65928;53.936;27.540;2023-02-02T07:55:13;97785.28;;;2.57;74.75
76609;BME280;65928;53.936;27.540;2023-02-02T07:57:38;97662.81;;;2.34;74.47
76609;BME280;65928;53.936;27.540;2023-02-02T08:00:04;97697.53;;;2.78;73.78
76609;BME280;65928;53.936;27.540;2023-02-02T08:02:30;97696.44;;;2.61;73.80
76609;BME280;65928;53.936;27.540;2023-02-02T08:04:55;97185.56;;;-0.17;72.63
76609;BME280;65928;53.936;27.540;2023-02-02T08:07:21;97380.41;;;0.71;74.07
76609;BME280;65928;53.936;27.540;2023-02-02T08:09:49;97722.38;;;2.86;73.25
76609;BME280;65928;53.936;27.540;2023-02-02T08:12:15;97458.59;;;1.33;73.35
76609;BME280;65928;53.936;27.540;2023-02-02T08:14:40;97644.41;;;2.38;73.47
76609;BME280;65928;53.936;27.540;2023-02-02T08:17:06;97235.84;;;0.04;73.84
76609;BME280;65928;53.936;27.540;2023-02-02T08:19:32;97227.53;;;0.17;73.61
76609;BME280;65928;53.936;27.540;2023-02-02T08:21:57;97254.47;;;0.36;73.30
76609;BME280;65928;53.936;27.540;2023-02-02T08:24:23;97250.13;;;0.37;72.92
76609;BME280;65928;53.936;27.540;2023-02-02T08:26:48;97725.25;;;3.00;73.54
76609;BME280;65928;53.936;27.540;2023-02-02T08:29:14;97693.69;;;2.86;73.30
76609;BME280;65928;53.936;27.540;2023-02-02T08:31:42;97429.00;;;1.14;73.36
76609;BME280;65928;53.936;27.540;2023-02-02T08:34:08;97533.34;;;1.72;73.79
76609;BME280;65928;53.936;27.540;2023-02-02T08:36:34;97269.81;;;0.42;72.22
76609;BME280;65928;53.936;27.540;2023-02-02T08:39:01;97722.00;;;3.15;72.19
76609;BME280;65928;53.936;27.540;2023-02-02T08:41:27;97303.06;;;0.56;72.70
76609;BME280;65928;53.936;27.540;2023-02-02T08:43:53;97740.56;;;2.88;75.13
76609;BME280;65928;53.936;27.540;2023-02-02T08:46:19;97660.47;;;2.90;74.47
76609;BME280;65928;53.936;27.540;2023-02-02T08:48:45;97778.78;;;3.10;73.37
76609;BME280;65928;53.936;27.540;2023-02-02T08:51:13;97657.72;;;2.52;74.53
76609;BME280;65928;53.936;27.540;2023-02-02T08:53:43;97304.97;;;0.51;73.96
76609;BME280;65928;53.936;27.540;2023-02-02T08:56:14;97721.44;;;3.09;74.07
76609;BME280;65928;53.936;27.540;2023-02-02T08:58:44;97362.16;;;0.94;73.64
76609;BME280;65928;53.936;27.540;2023-02-02T09:01:13;97277.38;;;0.70;72.62
76609;BME280;65928;53.936;27.540;2023-02-02T09:03:39;97737.16;;;3.27;73.44
76609;BME280;65928;53.936;27.540;2023-02-02T09:06:08;97725.84;;;3.67;72.40
76609;BME280;65928;53.936;27.540;2023-02-02T09:08:34;97806.06;;;3.84;71.69
76609;BME280;65928;53.936;27.540;2023-02-02T09:11:10;97754.16;;;3.76;71.60
76609;BME280;65928;53.936;27.540;2023-02-02T09:13:37;97672.94;;;2.83;71.89
76609;BME280;65928;53.936;27.540;2023-02-02T09:16:05;97736.38;;;3.45;70.88
76609;BME280;65928;53.936;27.540;2023-02-02T09:18:31;97769.00;;;3.35;71.95
76609;BME280;65928;53.936;27.540;2023-02-02T09:21:02;97360.19;;;1.22;71.03
76609;BME280;65928;53.936;27.540;2023-02-02T09:23:30;97751.78;;;3.51;70.74
76609;BME280;65928;53.936;27.540;2023-02-02T09:25:55;97337.34;;;1.29;70.43
76609;BME280;65928;53.936;27.540;2023-02-02T09:28:21;97755.13;;;4.31;69.48
76609;BME280;65928;53.936;27.540;2023-02-02T09:30:47;97809.72;;;3.80;69.55
76609;BME280;65928;53.936;27.540;2023-02-02T09:33:12;97381.28;;;1.56;69.72
76609;BME280;65928;53.936;27.540;2023-02-02T09:35:38;97735.19;;;3.32;70.55
76609;BME280;65928;53.936;27.540;2023-02-02T09:38:03;97813.81;;;3.85;69.82
76609;BME280;65928;53.936;27.540;2023-02-02T09:40:31;97754.16;;;3.95;69.14
76609;BME280;65928;53.936;27.540;2023-02-02T09:46:03;97633.50;;;3.11;69.32
76609;BME280;65928;53.936;27.540;2023-02-02T09:48:43;97267.72;;;0.93;69.41
76609;BME280;65928;53.936;27.540;2023-02-02T09:51:13;97805.66;;;3.12;71.63
76609;BME280;65928;53.936;27.540;2023-02-02T09:53:54;97323.78;;;1.01;70.41
76609;BME280;65928;53.936;27.540;2023-02-02T09:56:32;97314.06;;;1.26;69.73
76609;BME280;65928;53.936;27.540;2023-02-02T09:59:00;97315.28;;;0.75;71.01
76609;BME280;65928;53.936;27.540;2023-02-02T10:01:33;97390.31;;;1.06;71.21
76609;BME280;65928;53.936;27.540;2023-02-02T10:04:26;97819.41;;;3.57;71.11
76609;BME280;65928;53.936;27.540;2023-02-02T10:06:59;97839.16;;;3.83;70.41
76609;BME280;65928;53.936;27.540;2023-02-02T10:14:55;97779.75;;;3.68;70.96
76609;BME280;65928;53.936;27.540;2023-02-02T10:19:57;97804.75;;;4.12;68.46
76609;BME280;65928;53.936;27.540;2023-02-02T10:22:28;97378.75;;;1.95;68.19
76609;BME280;65928;53.936;27.540;2023-02-02T10:24:56;97776.94;;;4.11;68.94
76609;BME280;65928;53.936;27.540;2023-02-02T10:27:36;97774.44;;;4.08;69.04
76609;BME280;65928;53.936;27.540;2023-02-02T10:30:12;97470.50;;;2.02;70.10
76609;BME280;65928;53.936;27.540;2023-02-02T10:32:47;97719.50;;;3.52;69.46
76609;BME280;65928;53.936;27.540;2023-02-02T10:38:46;97770.72;;;3.75;70.16
76609;BME280;65928;53.936;27.540;2023-02-02T10:46:19;97539.22;;;2.19;70.50
76609;BME280;65928;53.936;27.540;2023-02-02T10:48:47;97380.78;;;1.68;69.64
76609;BME280;65928;53.936;27.540;2023-02-02T10:51:24;97324.41;;;1.67;67.94
76609;BME280;65928;53.936;27.540;2023-02-02T10:53:56;97405.41;;;2.40;67.37
76609;BME280;65928;53.936;27.540;2023-02-02T10:56:28;97686.63;;;4.41;66.34
76609;BME280;65928;53.936;27.540;2023-02-02T10:59:16;97747.94;;;4.53;66.23
76609;BME280;65928;53.936;27.540;2023-02-02T11:01:45;97714.22;;;4.11;67.58
76609;BME280;65928;53.936;27.540;2023-02-02T11:04:13;97566.78;;;3.24;67.35
76609;BME280;65928;53.936;27.540;2023-02-02T11:06:57;97311.09;;;1.55;67.61
76609;BME280;65928;53.936;27.540;2023-02-02T11:09:25;97688.69;;;3.79;67.32
76609;BME280;65928;53.936;27.540;2023-02-02T11:12:12;97318.97;;;1.12;68.45
76609;BME280;65928;53.936;27.540;2023-02-02T11:15:01;97328.72;;;1.28;68.55
76609;BME280;65928;53.936;27.540;2023-02-02T11:17:29;97330.06;;;1.37;67.86
76609;BME280;65928;53.936;27.540;2023-02-02T11:19:55;97407.38;;;1.75;68.16
76609;BME280;65928;53.936;27.540;2023-02-02T11:22:34;97792.97;;;4.22;67.84
76609;BME280;65928;53.936;27.540;2023-02-02T11:25:25;97743.31;;;4.04;67.78
76609;BME280;65928;53.936;27.540;2023-02-02T11:27:51;97410.19;;;2.49;66.21
76609;BME280;65928;53.936;27.540;2023-02-02T11:30:20;97862.28;;;4.70;66.72
76609;BME280;65928;53.936;27.540;2023-02-02T11:32:49;97801.75;;;4.21;67.70
76609;BME280;65928;53.936;27.540;2023-02-02T11:35:21;97805.84;;;4.27;67.47
76609;BME280;65928;53.936;27.540;2023-02-02T11:37:51;97805.25;;;4.02;68.41
76609;BME280;65928;53.936;27.540;2023-02-02T11:40:30;97864.88;;;4.12;68.36
76609;BME280;65928;53.936;27.540;2023-02-02T11:42:59;97426.72;;;1.49;69.38
76609;BME280;65928;53.936;27.540;2023-02-02T11:45:34;97852.34;;;4.20;68.14
76609;BME280;65928;53.936;27.540;2023-02-02T11:48:04;97713.56;;;2.89;69.94
76609;BME280;65928;53.936;27.540;2023-02-02T11:50:31;97848.97;;;3.58;70.68
76609;BME280;65928;53.936;27.540;2023-02-02T11:52:56;97484.00;;;1.69;69.85
76609;BME280;65928;53.936;27.540;2023-02-02T11:55:30;97385.63;;;0.93;70.27
76609;BME280;65928;53.936;27.540;2023-02-02T11:58:14;97507.56;;;1.45;70.74
76609;BME280;65928;53.936;27.540;2023-02-02T12:00:47;97793.41;;;3.14;71.10
76609;BME280;65928;53.936;27.540;2023-02-02T12:03:41;97830.94;;;3.32;70.81
76609;BME280;65928;53.936;27.540;2023-02-02T12:06:19;97899.63;;;3.32;70.85
76609;BME280;65928;53.936;27.540;2023-02-02T12:08:45;97598.06;;;1.81;71.47
76609;BME280;65928;53.936;27.540;2023-02-02T12:11:23;97361.34;;;0.49;70.77
76609;BME280;65928;53.936;27.540;2023-02-02T12:13:56;97838.13;;;3.47;70.85
76609;BME280;65928;53.936;27.540;2023-02-02T12:16:38;97322.69;;;0.63;69.65
76609;BME280;65928;53.936;27.540;2023-02-02T12:27:53;97501.38;;;2.31;67.87
76609;BME280;65928;53.936;27.540;2023-02-02T12:30:39;97396.28;;;1.50;68.17
76609;BME280;65928;53.936;27.540;2023-02-02T12:56:05;97864.69;;;3.15;72.40
76609;BME280;65928;53.936;27.540;2023-02-02T13:06:30;97538.25;;;1.58;71.45
76609;BME280;65928;53.936;27.540;2023-02-02T13:12:11;97865.84;;;3.71;70.50
76609;BME280;65928;53.936;27.540;2023-02-02T13:14:44;97891.31;;;4.45;68.93
76609;BME280;65928;53.936;27.540;2023-02-02T13:17:15;97414.81;;;1.22;68.31
76609;BME280;65928;53.936;27.540;2023-02-02T13:19:52;97840.59;;;3.50;69.93
76609;BME280;65928;53.936;27.540;2023-02-02T13:22:27;97911.69;;;3.98;68.80
76609;BME280;65928;53.936;27.540;2023-02-02T13:24:56;97806.41;;;3.36;68.73
76609;BME280;65928;53.936;27.540;2023-02-02T13:27:24;97873.41;;;3.77;68.74
76609;BME280;65928;53.936;27.540;2023-02-02T13:30:43;97409.09;;;0.91;69.27
76609;BME280;65928;53.936;27.540;2023-02-02T13:32:51;97897.06;;;3.94;69.04
76609;BME280;65928;53.936;27.540;2023-02-02T13:40:35;97845.34;;;3.20;69.05
76609;BME280;65928;53.936;27.540;2023-02-02T13:51:55;97877.22;;;3.90;67.98
76609;BME280;65928;53.936;27.540;2023-02-02T13:59:57;97897.56;;;3.82;68.47
76609;BME280;65928;53.936;27.540;2023-02-02T14:02:37;97932.78;;;3.52;69.22
76609;BME280;65928;53.936;27.540;2023-02-02T14:05:05;97955.91;;;3.83;68.70
76609;BME280;65928;53.936;27.540;2023-02-02T14:07:43;97820.47;;;2.90;69.53
76609;BME280;65928;53.936;27.540;2023-02-02T14:10:37;97979.75;;;3.53;69.17
76609;BME280;65928;53.936;27.540;2023-02-02T14:15:59;97796.72;;;3.18;68.31
76609;BME280;65928;53.936;27.540;2023-02-02T14:18:50;97910.59;;;3.62;69.00
76609;BME280;65928;53.936;27.540;2023-02-02T14:34:38;97380.50;;;0.23;68.74
76609;BME280;65928;53.936;27.540;2023-02-02T14:42:33;97482.63;;;0.48;70.81
76609;BME280;65928;53.936;27.540;2023-02-02T14:45:26;97578.84;;;0.95;71.35
76609;BME280;65928;53.936;27.540;2023-02-02T14:47:54;97589.84;;;1.01;70.45
76609;BME280;65928;53.936;27.540;2023-02-02T14:58:26;97506.84;;;0.72;70.61
76609;BME280;65928;53.936;27.540;2023-02-02T15:01:23;97962.53;;;3.05;71.88
76609;BME280;65928;53.936;27.540;2023-02-02T15:06:44;97902.00;;;3.38;70.14
76609;BME280;65928;53.936;27.540;2023-02-02T15:14:36;97507.91;;;0.68;70.11
76609;BME280;65928;53.936;27.540;2023-02-02T15:19:39;97594.44;;;1.41;69.75
76609;BME280;65928;53.936;27.540;2023-02-02T15:22:34;97978.59;;;3.60;69.73
76609;BME280;65928;53.936;27.540;2023-02-02T15:25:05;97874.13;;;2.74;70.26
76609;BME280;65928;53.936;27.540;2023-02-02T15:27:37;97991.88;;;3.54;70.23
76609;BME280;65928;53.936;27.540;2023-02-02T15:30:06;97527.41;;;0.55;70.55
76609;BME280;65928;53.936;27.540;2023-02-02T15:32:34;97908.13;;;2.94;70.47
76609;BME280;65928;53.936;27.540;2023-02-02T15:35:02;97598.72;;;0.96;70.88
76609;BME280;65928;53.936;27.540;2023-02-02T15:37:31;97518.38;;;0.17;71.82
76609;BME280;65928;53.936;27.540;2023-02-02T15:40:09;97934.75;;;2.57;72.04